Time;durP1;ratioP1;P1;durP2;ratioP2;P2;SDS_P1;SDS_P2;PMS_P1;PMS_P2;Temp;Humidity;BMP_temperature;BMP_pressure;BME280_temperature;BME280_humidity;BME280_pressure;Samples;Min_cycle;Max_cycle;Signal;HPM_P1;HPM_P2
2022/03/23 00:01:01;;;;;;;68.75;29.02;;;;;;;10.38;68.64;102985.41;5071486;28;20100;-44
2022/03/23 00:03:27;;;;;;;67.28;31.17;;;;;;;10.32;68.35;102990.31;5054785;28;20095;-48
2022/03/23 00:05:53;;;;;;;67.00;29.88;;;;;;;10.35;68.69;102988.31;5052991;28;20065;-46
2022/03/23 00:08:19;;;;;;;67.85;31.40;;;;;;;10.29;68.70;102985.19;5058286;28;20558;-46
2022/03/23 00:10:45;;;;;;;66.63;31.10;;;;;;;10.21;68.53;102981.38;5070045;28;20483;-45
2022/03/23 00:13:10;;;;;;;62.33;30.77;;;;;;;10.16;68.53;102984.44;5061159;28;20067;-46
2022/03/23 00:15:36;;;;;;;64.97;30.70;;;;;;;10.13;68.61;102983.84;5054365;28;20079;-44
2022/03/23 00:18:01;;;;;;;71.10;30.83;;;;;;;10.09;68.94;102985.94;5071510;28;20683;-48
2022/03/23 00:20:26;;;;;;;65.57;30.17;;;;;;;10.04;69.06;102985.47;5071934;28;20029;-45
2022/03/23 00:22:52;;;;;;;65.30;29.73;;;;;;;10.03;69.63;102983.72;5071169;28;20036;-46
2022/03/23 00:25:17;;;;;;;63.63;29.85;;;;;;;10.04;69.31;102985.47;5060606;28;20029;-46
2022/03/23 00:27:42;;;;;;;67.72;30.73;;;;;;;10.02;69.70;102977.50;5059219;28;20048;-45
2022/03/23 00:30:08;;;;;;;72.00;28.50;;;;;;;9.97;69.73;102990.47;5071550;28;20090;-45
2022/03/23 00:32:34;;;;;;;64.53;29.77;;;;;;;9.96;70.01;102982.53;5071286;28;20068;-44
2022/03/23 00:35:00;;;;;;;67.10;29.77;;;;;;;9.93;69.66;102982.81;5053461;28;20108;-45
2022/03/23 00:37:25;;;;;;;62.92;29.42;;;;;;;9.94;69.87;102984.50;5058312;28;20486;-44
2022/03/23 00:39:51;;;;;;;61.30;29.35;;;;;;;9.95;69.61;102983.50;5071324;28;20024;-44
2022/03/23 00:42:16;;;;;;;63.53;30.42;;;;;;;9.92;69.46;102976.53;5069441;28;20040;-47
2022/03/23 00:44:42;;;;;;;67.47;29.30;;;;;;;9.87;69.80;102974.25;5071174;28;20025;-47
2022/03/23 00:47:07;;;;;;;60.42;29.67;;;;;;;9.85;69.71;102973.50;5069612;28;20111;-44
2022/03/23 00:49:33;;;;;;;62.00;29.00;;;;;;;9.86;70.61;102971.66;5071073;28;20028;-45
2022/03/23 00:51:58;;;;;;;67.80;29.23;;;;;;;9.89;70.28;102977.66;5070687;28;20028;-46
2022/03/23 00:54:24;;;;;;;63.08;30.67;;;;;;;9.87;69.99;102974.25;5070975;28;20150;-45
2022/03/23 00:56:51;;;;;;;62.33;30.02;;;;;;;9.89;69.90;102979.50;5070574;28;20039;-45
2022/03/23 00:59:19;;;;;;;63.72;30.10;;;;;;;9.87;69.53;102976.94;5071079;28;20153;-47
2022/03/23 01:01:45;;;;;;;64.40;29.03;;;;;;;9.85;69.45;102970.81;5059080;28;20033;-44
2022/03/23 01:04:11;;;;;;;60.65;30.30;;;;;;;9.86;69.57;102969.84;5059222;28;20036;-46
2022/03/23 01:06:36;;;;;;;57.90;28.63;;;;;;;9.78;68.50;102972.28;5050481;28;20262;-45
2022/03/23 01:09:02;;;;;;;66.40;30.15;;;;;;;9.70;69.21;102969.38;5065173;28;20136;-46
2022/03/23 01:11:27;;;;;;;63.78;29.58;;;;;;;9.66;68.97;102978.66;5070112;28;20039;-46
2022/03/23 01:13:53;;;;;;;68.97;30.17;;;;;;;9.59;69.41;102972.09;5070275;28;20043;-45
2022/03/23 01:16:18;;;;;;;69.35;29.73;;;;;;;9.49;68.85;102974.63;5069611;28;20036;-44
2022/03/23 01:18:44;;;;;;;65.25;29.50;;;;;;;9.45;69.46;102974.03;5067292;28;20498;-45
2022/03/23 01:21:09;;;;;;;62.90;30.20;;;;;;;9.36;69.31;102976.59;5070592;28;20388;-46
2022/03/23 01:23:34;;;;;;;67.72;28.92;;;;;;;9.31;70.38;102971.56;5070519;28;20160;-45
2022/03/23 01:26:00;;;;;;;74.43;29.67;;;;;;;9.32;70.53;102967.94;5068820;28;20020;-46
2022/03/23 01:28:25;;;;;;;56.22;28.23;;;;;;;9.30;70.16;102963.66;5060619;28;20507;-45
2022/03/23 01:30:51;;;;;;;72.43;30.35;;;;;;;9.27;70.45;102963.88;5070198;28;20021;-45
2022/03/23 01:33:16;;;;;;;70.97;29.90;;;;;;;9.26;70.52;102963.03;5069897;28;20033;-45
2022/03/23 01:35:41;;;;;;;65.97;31.30;;;;;;;9.24;70.70;102970.34;5062137;28;20033;-45
2022/03/23 01:38:07;;;;;;;65.38;30.27;;;;;;;9.22;70.77;102969.63;5061422;28;20033;-45
2022/03/23 01:40:32;;;;;;;70.88;30.10;;;;;;;9.20;71.09;102963.53;5070130;28;20387;-46
2022/03/23 01:42:57;;;;;;;64.22;31.30;;;;;;;9.18;71.13;102963.63;5069694;28;20141;-45
2022/03/23 01:45:23;;;;;;;63.75;28.85;;;;;;;9.21;71.35;102965.22;5054961;28;20095;-45
2022/03/23 01:47:48;;;;;;;66.63;28.70;;;;;;;9.20;70.83;102958.16;5054041;28;20021;-45
2022/03/23 01:50:13;;;;;;;65.18;29.92;;;;;;;9.20;70.60;102958.16;5067535;28;20024;-45
2022/03/23 01:52:40;;;;;;;60.53;28.42;;;;;;;9.23;71.38;102957.91;5056959;28;20025;-46
2022/03/23 01:55:08;;;;;;;73.10;32.63;;;;;;;9.19;70.56;102959.97;5048998;28;20137;-46
2022/03/23 01:57:34;;;;;;;61.67;28.63;;;;;;;9.18;71.08;102958.25;5048879;28;20070;-45
2022/03/23 01:59:59;;;;;;;63.67;27.75;;;;;;;9.20;70.85;102959.00;5069246;28;20108;-45
2022/03/23 02:02:24;;;;;;;66.85;29.33;;;;;;;9.19;71.00;102961.81;5064591;28;20024;-45
2022/03/23 02:04:50;;;;;;;57.63;28.02;;;;;;;9.17;70.39;102955.72;5070018;28;20040;-45
2022/03/23 02:07:15;;;;;;;69.40;29.90;;;;;;;9.13;70.53;102957.75;5062204;28;20017;-44
2022/03/23 02:09:41;;;;;;;64.97;30.30;;;;;;;9.10;70.79;102949.09;5063599;28;20021;-47
2022/03/23 02:12:08;;;;;;;60.13;27.98;;;;;;;9.08;70.64;102943.84;5058217;28;20391;-44
2022/03/23 02:14:34;;;;;;;63.80;27.77;;;;;;;9.04;70.16;102947.75;5061688;28;20048;-44
2022/03/23 02:16:59;;;;;;;55.85;27.58;;;;;;;9.01;70.70;102948.84;5069555;28;20025;-46
2022/03/23 02:19:25;;;;;;;64.43;29.17;;;;;;;8.97;70.87;102947.34;5053818;28;20025;-44
2022/03/23 02:21:54;;;;;;;60.13;27.85;;;;;;;8.97;70.91;102949.19;5048878;28;20603;-44
2022/03/23 02:24:28;;;;;;;61.92;29.30;;;;;;;8.92;70.60;102948.69;5073261;28;20032;-44
2022/03/23 02:26:54;;;;;;;64.95;29.63;;;;;;;8.90;70.92;102938.09;5070917;28;20020;-45
2022/03/23 02:29:22;;;;;;;63.53;28.70;;;;;;;8.87;70.77;102941.00;5065733;28;20499;-44
2022/03/23 02:31:48;;;;;;;;;;;;;;;8.90;70.81;102935.41;5073827;28;20033;-44
2022/03/23 02:34:13;;;;;;;62.75;28.98;;;;;;;8.89;71.07;102943.56;5073439;28;19952;-44
2022/03/23 02:36:38;;;;;;;63.13;28.92;;;;;;;8.87;70.66;102942.81;5062507;28;20074;-46
2022/03/23 02:39:04;;;;;;;55.90;28.17;;;;;;;8.84;70.51;102946.59;5064895;28;20024;-46
2022/03/23 02:41:29;;;;;;;62.53;29.45;;;;;;;8.80;70.91;102945.16;5073483;28;20136;-44
2022/03/23 02:43:55;;;;;;;63.22;28.20;;;;;;;8.72;70.54;102942.22;5065712;28;20403;-44
2022/03/23 02:46:21;;;;;;;64.75;28.95;;;;;;;8.68;70.70;102946.09;5053216;28;20456;-46
2022/03/23 02:48:47;;;;;;;62.70;29.63;;;;;;;8.62;70.74;102943.88;5070328;28;20033;-46
2022/03/23 02:51:13;;;;;;;64.20;28.40;;;;;;;8.61;70.96;102939.47;5073306;28;20047;-45
2022/03/23 03:02:28;;;;;;;55.55;26.23;;;;;;;8.44;71.02;102944.31;5072871;28;20056;-44
2022/03/23 03:04:53;;;;;;;66.05;29.30;;;;;;;8.44;71.76;102941.63;5072962;28;20033;-44
2022/03/23 03:07:19;;;;;;;59.72;27.35;;;;;;;8.42;71.65;102946.25;5109169;22;20033;-48
2022/03/23 03:09:44;;;;;;;57.70;27.70;;;;;;;8.35;71.33;102951.19;5093503;28;20100;-45
2022/03/23 03:12:11;;;;;;;67.65;27.90;;;;;;;8.28;70.73;102949.94;5094722;28;20024;-47
2022/03/23 03:14:37;;;;;;;67.30;28.38;;;;;;;8.19;70.85;102944.41;5093569;28;20017;-48
2022/03/23 03:17:02;;;;;;;60.60;27.70;;;;;;;8.14;71.71;102950.13;5093962;28;20067;-46
2022/03/23 03:19:28;;;;;;;64.97;28.38;;;;;;;8.09;71.81;102950.47;5093387;28;20029;-46
2022/03/23 03:21:54;;;;;;;56.97;26.13;;;;;;;8.10;72.50;102952.16;5094672;28;20060;-49
2022/03/23 03:24:20;;;;;;;57.55;27.25;;;;;;;8.12;72.42;102950.22;5076778;28;20044;-46
2022/03/23 03:26:46;;;;;;;63.25;27.88;;;;;;;8.12;72.59;102955.59;5093591;28;20443;-44
2022/03/23 03:29:11;;;;;;;64.40;27.77;;;;;;;8.11;72.34;102948.53;5093919;28;20040;-48
2022/03/23 03:31:36;;;;;;;54.00;26.85;;;;;;;8.11;72.86;102951.22;5093914;28;20063;-49
2022/03/23 03:34:02;;;;;;;63.25;27.70;;;;;;;8.04;71.69;102952.63;5093983;28;20021;-49
2022/03/23 03:36:27;;;;;;;63.00;27.67;;;;;;;8.01;72.12;102942.13;5094485;28;20036;-48
2022/03/23 03:38:54;;;;;;;57.60;28.52;;;;;;;7.93;71.60;102949.91;5093544;28;20048;-46
2022/03/23 03:41:20;;;;;;;64.05;28.88;;;;;;;7.89;72.09;102948.41;5094595;28;20052;-47
2022/03/23 03:43:45;;;;;;;62.80;28.05;;;;;;;7.89;72.49;102948.41;5094779;28;20032;-45
2022/03/23 03:46:11;;;;;;;60.90;28.30;;;;;;;7.82;72.11;102952.47;5093638;28;20025;-47
2022/03/23 03:48:40;;;;;;;59.22;28.98;;;;;;;7.84;72.73;102956.75;5094663;28;20024;-49
2022/03/23 03:51:06;;;;;;;65.20;28.38;;;;;;;7.82;73.01;102948.00;5095060;28;20025;-46
2022/03/23 03:53:32;;;;;;;64.18;27.90;;;;;;;7.84;72.88;102950.56;5090555;28;20044;-49
2022/03/23 03:55:57;;;;;;;61.33;27.40;;;;;;;7.83;72.83;102954.22;5094606;28;20043;-46
2022/03/23 03:58:22;;;;;;;58.85;28.70;;;;;;;7.77;72.92;102962.72;5094058;28;20043;-48
2022/03/23 04:00:48;;;;;;;60.45;27.15;;;;;;;7.75;73.83;102961.97;5094810;28;20056;-45
2022/03/23 04:03:14;;;;;;;69.05;27.95;;;;;;;7.75;73.52;102961.97;5094919;28;20033;-48
2022/03/23 04:05:39;;;;;;;57.45;28.13;;;;;;;7.73;73.48;102970.09;5094985;28;20021;-46
2022/03/23 04:08:05;;;;;;;59.65;27.48;;;;;;;7.72;73.61;102962.19;5075458;28;20052;-49
2022/03/23 04:10:31;;;;;;;60.53;27.60;;;;;;;7.71;73.52;102969.34;5076899;28;20127;-47
2022/03/23 04:12:57;;;;;;;62.47;28.17;;;;;;;7.70;73.34;102968.50;5091864;28;20058;-47
2022/03/23 04:15:24;;;;;;;54.13;25.27;;;;;;;7.69;73.45;102968.63;5084850;28;20020;-48
2022/03/23 04:17:49;;;;;;;55.25;28.08;;;;;;;7.67;74.10;102966.03;5089870;28;20018;-48
2022/03/23 04:20:15;;;;;;;57.92;28.83;;;;;;;7.68;73.94;102972.25;5076293;28;20025;-45
2022/03/23 04:22:40;;;;;;;57.67;28.85;;;;;;;7.69;74.15;102964.13;5083797;28;21041;-48
2022/03/23 04:25:07;;;;;;;59.13;28.15;;;;;;;7.73;74.10;102969.25;5076101;28;20032;-46
2022/03/23 04:27:34;;;;;;;64.50;28.23;;;;;;;7.75;73.78;102975.38;5059859;28;20025;-45
2022/03/23 04:29:59;;;;;;;61.88;27.95;;;;;;;7.76;73.90;102969.03;5090544;28;20305;-46
2022/03/23 04:32:25;;;;;;;59.25;27.92;;;;;;;7.72;73.53;102979.13;5089843;28;20013;-45
2022/03/23 04:34:50;;;;;;;60.20;28.30;;;;;;;7.70;73.16;102975.69;5084589;28;20028;-46
2022/03/23 04:37:15;;;;;;;59.28;27.48;;;;;;;7.65;72.74;102977.84;5087535;28;20048;-47
2022/03/23 04:39:41;;;;;;;82.68;31.17;;;;;;;7.66;73.71;102977.75;5091689;28;20040;-45
2022/03/23 04:42:06;;;;;;;56.15;27.23;;;;;;;7.64;73.47;102976.13;5077334;28;20084;-47
2022/03/23 04:44:32;;;;;;;63.97;27.13;;;;;;;7.60;73.30;102980.84;5089623;28;20021;-46
2022/03/23 04:46:57;;;;;;;59.83;26.80;;;;;;;7.59;73.76;102975.63;5078463;28;20059;-44
2022/03/23 04:49:22;;;;;;;62.55;27.65;;;;;;;7.56;73.58;102984.72;5074459;28;20032;-48
2022/03/23 04:51:48;;;;;;;59.33;28.40;;;;;;;7.58;73.59;102985.47;5086302;28;20032;-44
2022/03/23 04:54:14;;;;;;;70.13;28.52;;;;;;;7.56;73.69;102979.38;5081083;28;20040;-47
2022/03/23 04:56:39;;;;;;;65.80;28.50;;;;;;;7.56;73.94;102978.50;5084166;28;20036;-46
2022/03/23 04:59:05;;;;;;;60.97;27.25;;;;;;;7.61;73.69;102985.25;5084062;28;20024;-47
2022/03/23 05:01:31;;;;;;;63.25;27.15;;;;;;;7.60;73.49;102983.53;5079654;28;20076;-49
2022/03/23 05:03:57;;;;;;;58.72;28.15;;;;;;;7.53;72.86;102987.63;5059547;28;20041;-48
2022/03/23 05:06:22;;;;;;;59.78;28.17;;;;;;;7.54;73.37;102989.34;5070233;28;20063;-46
2022/03/23 05:08:48;;;;;;;63.88;28.70;;;;;;;7.51;73.56;102989.56;5073574;28;20020;-45
2022/03/23 05:11:13;;;;;;;64.25;28.08;;;;;;;7.51;73.89;102992.22;5074127;28;20025;-47
2022/03/23 05:13:40;;;;;;;57.53;27.73;;;;;;;7.47;73.39;103001.44;5073822;28;20045;-48
2022/03/23 05:16:07;;;;;;;63.33;28.63;;;;;;;7.40;73.34;102995.69;5087294;28;20024;-46
2022/03/23 05:18:33;;;;;;;61.88;28.05;;;;;;;7.36;73.57;102994.16;5088558;28;20017;-45
2022/03/23 05:20:58;;;;;;;63.88;28.88;;;;;;;7.31;73.51;102995.47;5078916;28;20041;-46
2022/03/23 05:23:24;;;;;;;82.95;30.08;;;;;;;7.29;73.75;103002.75;5076341;28;20033;-45
2022/03/23 05:25:49;;;;;;;62.53;28.13;;;;;;;7.23;73.72;102996.84;5074872;28;20032;-45
2022/03/23 05:28:14;;;;;;;64.90;27.35;;;;;;;7.23;74.37;102999.53;5074955;28;20028;-45
2022/03/23 05:30:40;;;;;;;57.10;28.02;;;;;;;7.28;74.38;103001.03;5078811;28;20048;-49
2022/03/23 05:33:05;;;;;;;58.20;27.40;;;;;;;7.26;74.01;103004.66;5059081;28;20037;-45
2022/03/23 05:35:30;;;;;;;67.40;28.20;;;;;;;7.24;74.10;103001.25;5058372;28;20012;-44
2022/03/23 05:37:56;;;;;;;61.60;28.58;;;;;;;7.30;74.42;103004.47;5061340;28;20068;-43
2022/03/23 05:40:21;;;;;;;59.00;26.85;;;;;;;7.29;74.04;102998.22;5068838;28;20024;-45
2022/03/23 05:42:47;;;;;;;66.50;28.35;;;;;;;7.30;74.14;102996.44;5060204;28;21150;-44
2022/03/23 05:45:13;;;;;;;68.60;28.23;;;;;;;7.35;74.05;103002.31;5059572;28;20042;-45
2022/03/23 05:47:40;;;;;;;65.43;27.98;;;;;;;7.39;73.81;102999.31;5060639;28;20048;-48
2022/03/23 05:50:07;;;;;;;66.57;27.42;;;;;;;7.44;73.49;102996.31;5059638;28;20094;-43
2022/03/23 05:52:32;;;;;;;65.90;27.67;;;;;;;7.47;73.09;102998.75;5057282;28;20113;-46
2022/03/23 05:54:57;;;;;;;71.85;29.08;;;;;;;7.47;73.02;102999.63;5063257;28;20037;-44
2022/03/23 05:57:23;;;;;;;63.47;29.13;;;;;;;7.54;73.19;103008.09;5059768;28;20073;-44
2022/03/23 05:59:48;;;;;;;62.70;28.83;;;;;;;7.55;72.66;103009.78;5067934;28;20109;-44
2022/03/23 06:02:13;;;;;;;62.67;29.15;;;;;;;7.56;72.59;103000.81;5040916;28;20103;-44
2022/03/23 06:04:39;;;;;;;62.80;27.08;;;;;;;7.57;72.55;103010.53;5051872;28;20024;-48
2022/03/23 06:07:04;;;;;;;64.25;28.98;;;;;;;7.58;72.33;103008.72;5062564;28;20038;-45
2022/03/23 06:09:29;;;;;;;55.97;26.45;;;;;;;7.61;72.40;103009.38;5068838;28;20041;-44
2022/03/23 06:11:56;;;;;;;68.43;27.63;;;;;;;7.65;72.81;103010.84;5062470;28;20033;-44
2022/03/23 06:14:22;;;;;;;69.32;28.77;;;;;;;7.70;72.68;103008.69;5063201;28;20097;-43
2022/03/23 06:16:47;;;;;;;64.22;29.08;;;;;;;7.72;72.04;103010.44;5060721;28;20041;-45
2022/03/23 06:19:13;;;;;;;68.78;28.20;;;;;;;7.78;72.50;103015.34;5066631;28;20042;-43
2022/03/23 06:21:39;;;;;;;70.43;28.17;;;;;;;7.95;72.38;103011.44;5065603;28;20044;-44
2022/03/23 06:24:04;;;;;;;69.78;27.92;;;;;;;8.10;71.58;103007.63;5061530;28;20040;-47
2022/03/23 06:26:30;;;;;;;65.45;29.10;;;;;;;8.27;70.97;103012.63;5062586;28;20033;-44
2022/03/23 06:28:55;;;;;;;58.35;28.45;;;;;;;8.50;70.85;103007.38;5062630;28;20139;-44
2022/03/23 06:31:22;;;;;;;59.10;28.25;;;;;;;8.98;69.92;103012.69;5059391;28;20021;-44
2022/03/23 06:33:47;;;;;;;53.50;26.15;;;;;;;9.37;67.22;103014.13;5060714;28;20021;-44
2022/03/23 06:36:12;;;;;;;56.20;26.88;;;;;;;10.10;64.12;103018.09;5063901;28;20063;-44
2022/03/23 06:38:38;;;;;;;57.13;26.63;;;;;;;10.61;61.44;103019.31;5063346;28;20048;-45
2022/03/23 06:41:03;;;;;;;61.33;26.23;;;;;;;10.95;59.45;103016.44;5055997;28;20080;-44
2022/03/23 06:43:29;;;;;;;57.25;25.67;;;;;;;11.11;58.46;103019.56;5065906;28;20055;-42
2022/03/23 06:45:54;;;;;;;52.15;24.98;;;;;;;11.38;56.76;103020.84;5063383;28;20049;-44
2022/03/23 06:48:19;;;;;;;56.53;25.35;;;;;;;11.50;56.43;103019.75;5056691;28;20025;-43
2022/03/23 06:50:45;;;;;;;55.45;26.27;;;;;;;11.73;55.67;103020.41;5062375;28;20184;-43
2022/03/23 06:53:10;;;;;;;51.80;24.60;;;;;;;12.22;54.12;103028.69;5059557;28;20058;-45
2022/03/23 06:55:36;;;;;;;55.15;26.40;;;;;;;12.83;52.96;103030.28;5060309;28;20029;-43
2022/03/23 06:58:01;;;;;;;60.58;25.88;;;;;;;13.52;50.71;103032.72;5063097;28;20017;-46
2022/03/23 07:00:27;;;;;;;56.63;25.92;;;;;;;14.18;48.68;103028.97;5063627;28;20025;-46
2022/03/23 07:02:53;;;;;;;57.20;25.52;;;;;;;14.55;47.01;103029.91;5067738;28;20074;-46
2022/03/23 07:05:19;;;;;;;54.85;25.15;;;;;;;14.76;45.92;103035.00;5063573;28;20041;-46
2022/03/23 07:10:37;;;;;;;53.45;25.67;;;;;;;15.11;44.27;103032.25;5049878;28;20044;-44
2022/03/23 07:13:02;;;;;;;49.88;25.10;;;;;;;15.29;43.13;103039.47;5061871;28;20088;-45
2022/03/23 07:15:28;;;;;;;48.13;24.95;;;;;;;15.27;43.69;103046.91;5063985;28;20021;-44
2022/03/23 07:17:54;;;;;;;51.17;24.95;;;;;;;15.74;41.82;103044.66;5068307;28;20060;-43
2022/03/23 07:20:19;;;;;;;60.70;26.20;;;;;;;16.06;41.43;103044.97;5064803;28;20056;-44
2022/03/23 07:22:44;;;;;;;45.88;23.40;;;;;;;16.65;39.72;103043.09;5057607;28;20041;-46
2022/03/23 07:25:11;;;;;;;52.33;25.92;;;;;;;16.97;39.00;103046.88;5070763;28;20025;-45
2022/03/23 07:27:36;;;;;;;45.22;24.85;;;;;;;17.23;38.65;103046.66;5060858;28;20039;-43
2022/03/23 07:30:02;;;;;;;52.17;25.83;;;;;;;17.81;37.58;103044.69;5069668;28;20088;-44
2022/03/23 07:32:27;;;;;;;50.17;27.15;;;;;;;18.81;36.52;103053.81;5062667;28;20041;-43
2022/03/23 07:34:53;;;;;;;56.05;27.63;;;;;;;19.13;35.15;103062.75;5061564;28;20114;-44
2022/03/23 07:37:18;;;;;;;68.13;27.75;;;;;;;19.19;35.15;103055.69;5062979;28;20083;-44
2022/03/23 07:39:43;;;;;;;53.92;26.40;;;;;;;19.39;35.35;103059.59;5056569;28;20067;-48
2022/03/23 07:42:09;;;;;;;45.25;26.00;;;;;;;19.91;33.37;103064.16;5058979;28;20036;-43
2022/03/23 07:44:35;;;;;;;50.20;28.10;;;;;;;20.31;32.33;103066.53;5052968;28;20514;-46
2022/03/23 07:47:01;;;;;;;58.70;27.52;;;;;;;20.76;31.46;103070.81;5063296;28;20061;-46
2022/03/23 07:49:26;;;;;;;48.63;26.20;;;;;;;20.65;30.24;103068.59;5057659;28;20029;-45
2022/03/23 07:51:52;;;;;;;51.88;26.02;;;;;;;20.15;31.05;103073.06;5072394;28;20047;-49
2022/03/23 07:54:17;;;;;;;49.55;26.45;;;;;;;19.86;32.04;103074.78;5060986;28;20032;-42
2022/03/23 07:56:43;;;;;;;48.55;26.70;;;;;;;19.68;32.82;103074.31;5064684;28;20025;-44
2022/03/23 07:59:08;;;;;;;52.03;27.85;;;;;;;19.85;32.07;103073.09;5066961;28;20096;-43
2022/03/23 08:01:34;;;;;;;56.53;28.95;;;;;;;20.36;32.60;103067.63;5065790;28;20053;-44
2022/03/23 08:04:00;;;;;;;53.08;28.23;;;;;;;20.98;31.42;103074.38;5064946;28;20044;-44
2022/03/23 08:06:26;;;;;;;53.67;28.98;;;;;;;21.31;30.85;103079.28;5072381;28;20045;-45
2022/03/23 08:08:52;;;;;;;54.95;27.30;;;;;;;21.43;30.51;103082.34;5058140;28;20060;-44
2022/03/23 08:11:17;;;;;;;51.30;28.85;;;;;;;22.08;29.22;103085.66;5068742;28;20041;-45
2022/03/23 08:13:43;;;;;;;51.70;28.92;;;;;;;21.91;29.85;103086.03;5064750;28;20097;-43
2022/03/23 08:16:09;;;;;;;47.00;28.65;;;;;;;22.37;29.45;103087.28;5058807;28;20040;-44
2022/03/23 08:18:35;;;;;;;47.83;27.57;;;;;;;22.46;28.06;103088.81;5067020;28;20069;-44
2022/03/23 08:21:00;;;;;;;54.83;27.70;;;;;;;22.32;28.65;103087.91;5061002;28;20291;-44
2022/03/23 08:23:26;;;;;;;48.97;27.52;;;;;;;21.99;29.31;103081.41;5068041;28;20032;-43
2022/03/23 08:25:52;;;;;;;56.55;29.77;;;;;;;22.06;29.60;103076.78;5069232;28;20055;-45
2022/03/23 08:28:17;;;;;;;53.03;28.65;;;;;;;22.51;29.33;103080.78;5059837;28;20040;-43
2022/03/23 08:30:44;;;;;;;52.78;29.80;;;;;;;22.44;29.32;103082.66;5071076;28;20105;-44
2022/03/23 08:33:10;;;;;;;56.28;30.08;;;;;;;22.88;28.89;103081.28;5063029;28;20052;-45
2022/03/23 08:35:36;;;;;;;59.55;28.88;;;;;;;23.38;27.75;103080.84;5064773;28;20037;-45
2022/03/23 08:38:02;;;;;;;51.08;28.42;;;;;;;23.55;27.03;103081.25;5070813;28;20029;-42
2022/03/23 08:40:28;;;;;;;51.20;28.15;;;;;;;24.05;26.58;103078.81;5057039;28;20018;-44
2022/03/23 08:42:55;;;;;;;55.92;30.05;;;;;;;23.85;26.15;103076.97;5068644;28;20013;-44
2022/03/23 08:45:21;;;;;;;49.10;28.92;;;;;;;23.73;25.85;103078.72;5070527;28;20046;-44
2022/03/23 08:47:49;;;;;;;47.58;27.98;;;;;;;24.21;25.56;103085.72;5059524;28;20033;-46
2022/03/23 08:50:15;;;;;;;50.53;27.88;;;;;;;24.64;24.34;103077.66;5060335;28;20029;-45
2022/03/23 08:52:41;;;;;;;51.35;29.35;;;;;;;24.18;25.84;103081.50;5063709;28;20022;-45
2022/03/23 08:55:09;;;;;;;55.50;29.25;;;;;;;24.36;24.57;103071.69;5058824;28;21684;-44
2022/03/23 08:57:35;;;;;;;57.28;28.90;;;;;;;24.29;24.50;103075.28;5054561;28;20137;-44
2022/03/23 09:00:03;;;;;;;54.75;30.55;;;;;;;24.64;24.43;103080.41;5061547;28;20025;-45
2022/03/23 09:02:29;;;;;;;56.47;29.92;;;;;;;24.68;24.14;103078.91;5054821;28;20028;-45
2022/03/23 09:04:54;;;;;;;51.35;29.45;;;;;;;25.15;24.31;103075.78;5062789;28;20044;-45
2022/03/23 09:07:19;;;;;;;47.70;27.55;;;;;;;25.21;23.36;103079.59;5064470;28;20060;-44
2022/03/23 09:09:45;;;;;;;49.75;28.45;;;;;;;25.65;23.39;103080.41;5065785;28;20079;-44
2022/03/23 09:12:10;;;;;;;50.25;28.05;;;;;;;25.53;23.05;103083.06;5055772;28;20137;-44
2022/03/23 09:14:36;;;;;;;47.55;28.70;;;;;;;25.73;22.67;103082.88;5074118;28;20040;-46
2022/03/23 09:17:02;;;;;;;50.70;28.80;;;;;;;25.66;22.40;103082.09;5063105;28;20059;-48
2022/03/23 09:19:27;;;;;;;54.40;29.13;;;;;;;25.65;22.38;103075.75;5082181;28;20016;-43
2022/03/23 09:21:53;;;;;;;53.60;29.92;;;;;;;25.16;22.80;103080.25;5084801;28;20056;-45
2022/03/23 09:24:19;;;;;;;48.15;28.25;;;;;;;24.90;24.13;103078.53;5076420;28;20029;-46
2022/03/23 09:26:44;;;;;;;51.55;29.67;;;;;;;24.70;24.37;103079.53;5072992;28;20070;-45
2022/03/23 09:29:10;;;;;;;55.40;28.60;;;;;;;24.89;23.96;103083.19;5077384;28;20261;-43
2022/03/23 09:31:36;;;;;;;56.72;28.80;;;;;;;24.97;23.53;103077.41;5066716;28;20056;-44
2022/03/23 09:34:02;;;;;;;47.85;28.00;;;;;;;25.00;23.21;103078.88;5061577;28;20063;-43
2022/03/23 09:39:12;;;;;;;48.85;27.60;;;;;;;24.54;22.99;103080.06;5067005;28;20040;-46
2022/03/23 09:41:38;;;;;;;52.22;28.67;;;;;;;24.34;22.73;103082.06;5055561;28;20026;-43
2022/03/23 09:44:05;;;;;;;49.58;28.08;;;;;;;23.96;22.64;103072.72;5068642;28;20036;-45
2022/03/23 09:46:32;;;;;;;49.00;27.43;;;;;;;23.85;23.55;103076.13;5072347;28;20061;-47
2022/03/23 09:48:57;;;;;;;46.50;27.50;;;;;;;23.74;24.11;103068.53;5066490;28;20075;-48
2022/03/23 09:51:23;;;;;;;49.75;27.55;;;;;;;23.75;24.04;103073.84;5075085;28;20017;-44
2022/03/23 09:53:49;;;;;;;50.10;28.80;;;;;;;23.74;23.37;103076.78;5075380;28;20025;-44
2022/03/23 09:56:15;;;;;;;49.65;28.98;;;;;;;23.02;24.39;103081.31;5075172;28;20047;-45
2022/03/23 09:58:42;;;;;;;56.65;29.80;;;;;;;22.42;25.47;103076.53;5062848;28;20024;-47
2022/03/23 10:01:27;;;;;;;56.15;29.80;;;;;;;22.08;26.83;103074.69;5054038;28;20031;-46
2022/03/23 10:04:08;;;;;;;55.42;30.85;;;;;;;21.87;26.92;103070.19;5067499;28;20074;-43
2022/03/23 10:06:39;;;;;;;53.03;28.90;;;;;;;21.95;27.25;103072.75;5073511;28;20045;-45
2022/03/23 10:09:20;;;;;;;54.38;30.40;;;;;;;22.10;26.93;103078.09;5055737;28;20029;-46
2022/03/23 10:12:07;;;;;;;59.35;30.13;;;;;;;22.16;26.67;103076.41;5055123;28;20031;-43
2022/03/23 10:14:44;;;;;;;54.45;29.23;;;;;;;22.22;26.63;103075.63;5055090;28;20025;-45
2022/03/23 10:17:28;;;;;;;;;;;;;;;22.01;26.75;103074.69;5081846;28;20021;-45
2022/03/23 10:19:54;;;;;;;59.70;30.05;;;;;;;21.99;26.82;103074.03;5064299;28;20035;-43
2022/03/23 10:22:20;;;;;;;50.70;30.00;;;;;;;21.94;27.71;103073.81;5055052;28;20045;-45
2022/03/23 10:24:45;;;;;;;54.95;30.85;;;;;;;21.76;27.27;103071.59;5053881;28;20040;-46
2022/03/23 10:27:14;;;;;;;53.80;30.10;;;;;;;21.41;27.12;103068.03;5071248;28;20024;-44
2022/03/23 10:29:44;;;;;;;59.88;30.65;;;;;;;21.21;27.95;103068.66;5074922;28;20065;-43
2022/03/23 10:32:10;;;;;;;63.88;30.80;;;;;;;21.21;27.67;103076.88;5075091;28;20029;-45
2022/03/23 10:34:43;;;;;;;58.40;30.98;;;;;;;21.45;27.75;103063.81;5071783;28;20028;-47
2022/03/23 10:37:11;;;;;;;59.42;30.52;;;;;;;21.35;27.42;103072.34;5078315;28;20040;-45
2022/03/23 10:39:37;;;;;;;57.92;30.98;;;;;;;21.12;27.77;103075.34;5078210;28;20042;-43
2022/03/23 10:42:18;;;;;;;61.63;31.98;;;;;;;21.52;26.84;103072.09;5083355;28;20029;-43
2022/03/23 10:44:44;;;;;;;59.35;31.42;;;;;;;22.16;25.95;103076.41;5082829;28;20032;-44
2022/03/23 10:47:33;;;;;;;51.92;30.02;;;;;;;22.36;24.11;103077.38;5087155;28;20025;-44
2022/03/23 10:50:20;;;;;;;66.00;31.23;;;;;;;21.35;24.51;103076.97;5077529;28;20031;-43
2022/03/23 10:53:01;;;;;;;63.35;30.55;;;;;;;20.60;25.57;103065.59;5078881;28;20017;-43
2022/03/23 10:55:28;;;;;;;55.05;30.02;;;;;;;20.85;25.63;103067.94;5066529;28;20026;-43
2022/03/23 10:57:59;;;;;;;61.08;31.02;;;;;;;21.04;25.34;103062.66;5058362;28;20053;-43
2022/03/23 11:00:36;;;;;;;59.13;31.25;;;;;;;20.78;26.26;103057.78;5072468;28;20024;-42
2022/03/23 11:03:03;;;;;;;63.25;31.70;;;;;;;20.57;25.74;103066.00;5078197;28;20029;-44
2022/03/23 11:05:33;;;;;;;62.75;32.83;;;;;;;20.30;26.95;103068.41;5075449;28;20060;-43
2022/03/23 11:08:08;;;;;;;58.83;31.88;;;;;;;19.60;26.55;103064.31;5082598;28;20043;-43
2022/03/23 11:16:17;;;;;;;65.38;32.35;;;;;;;19.95;26.10;103068.16;5067423;28;20024;-43
2022/03/23 11:18:44;;;;;;;59.67;31.77;;;;;;;20.09;26.40;103076.53;5078970;28;20025;-46
2022/03/23 11:21:09;;;;;;;62.05;32.67;;;;;;;21.23;25.31;103063.84;5077798;28;20017;-43
2022/03/23 11:23:38;;;;;;;66.68;32.30;;;;;;;21.76;24.84;103068.84;5079131;28;20028;-43
2022/03/23 11:26:07;;;;;;;60.50;34.22;;;;;;;22.26;24.55;103071.44;5078000;28;20013;-43
2022/03/23 11:28:44;;;;;;;59.28;32.20;;;;;;;22.84;23.53;103069.00;5078777;28;20037;-45
2022/03/23 11:31:12;;;;;;;65.25;33.78;;;;;;;22.06;24.10;103066.66;5077943;28;20107;-45